This is the latest recevied weather packets stored in our database for station/object S54L-12. If no packets are shown the sender has not sent any weather packets the latest 10 day(s).
| Time | Temp. | Humidity | Pressure | Rain* | Wind** | Luminosity | Snow |
|---|---|---|---|---|---|---|---|
| 1777394584 | 15.56° C | 45% | 922.1 hPa | - | - | - | - |
| 1777393684 | 16.11° C | 44% | 922 hPa | - | - | - | - |
| 1777392783 | 17.22° C | 43% | 922 hPa | - | - | - | - |
| 1777391883 | 17.78° C | 40% | 922 hPa | - | - | - | - |
| 1777390983 | 18.33° C | 40% | 921.9 hPa | - | - | - | - |
| 1777390083 | 17.78° C | 40% | 921.7 hPa | - | - | - | - |
| 1777389184 | 18.33° C | 39% | 921.8 hPa | - | - | - | - |
| 1777388284 | 18.33° C | 39% | 921.9 hPa | - | - | - | - |
| 1777387384 | 18.33° C | 39% | 922 hPa | - | - | - | - |
| 1777386484 | 18.33° C | 39% | 922 hPa | - | - | - | - |
| 1777385584 | 18.89° C | 40% | 922 hPa | - | - | - | - |
| 1777384684 | 19.44° C | 38% | 922.1 hPa | - | - | - | - |
| 1777383784 | 20° C | 36% | 922.3 hPa | - | - | - | - |
| 1777382884 | 20.56° C | 35% | 922.3 hPa | - | - | - | - |
| 1777381984 | 21.11° C | 35% | 922.3 hPa | - | - | - | - |
| 1777381084 | 20.56° C | 36% | 922.6 hPa | - | - | - | - |
| 1777380184 | 20.56° C | 35% | 922.7 hPa | - | - | - | - |
| 1777379283 | 20° C | 36% | 922.7 hPa | - | - | - | - |
| 1777378383 | 18.89° C | 38% | 922.9 hPa | - | - | - | - |
| 1777377483 | 19.44° C | 36% | 922.9 hPa | - | - | - | - |
| 1777376583 | 20.56° C | 35% | 922.9 hPa | - | - | - | - |
| 1777375683 | 20° C | 36% | 923 hPa | - | - | - | - |
| 1777374783 | 20.56° C | 35% | 923.1 hPa | - | - | - | - |
| 1777373883 | 21.11° C | 34% | 923.2 hPa | - | - | - | - |
| 1777372983 | 20.56° C | 34% | 923.2 hPa | - | - | - | - |
* Rain since midnight (hover to see other rain measurements)
** Current wind speed in m/s (hover to see current wind gust speed)